Meteorología y climatología de Navarra
Datos de la estación - Meteo Navarra

Estación de Estella GN

Altitud 486 m.


Datos desde el 16/09/2020 hasta el 17/09/2020 en horario solar
Los datos son PROVISIONALES

Anterior Página 1 de 1 Siguiente Descargar: Formato para Excel 2000 o superior   Formato csv   Formato para OpenOffice Calc
Fecha Temperatura Humedad relativa Radiación global Insolación Precipitación Vel. viento 10 m Vel. viento 10 m Dir. viento 10 m
ºC % W/m² s l/m² m/s km/h º
16/09/2020 0:00 18.6 73 0.0 0 0.0 1.5 5.5 313
16/09/2020 0:10 18.6 73 0.0 0 0.0 1.9 6.7 318
16/09/2020 0:20 18.4 74 0.0 0 0.0 1.5 5.5 318
16/09/2020 0:30 18.3 74 0.0 0 0.0 1.4 4.9 319
16/09/2020 0:40 18.3 74 0.0 0 0.0 1.7 6.0 312
16/09/2020 0:50 18.2 75 0.0 0 0.0 1.8 6.5 310
16/09/2020 1:00 17.9 76 0.0 0 0.0 1.8 6.3 314
16/09/2020 1:10 17.8 76 0.0 0 0.0 1.3 4.8 300
16/09/2020 1:20 17.7 77 0.0 0 0.0 1.5 5.4 308
16/09/2020 1:30 17.6 77 0.0 0 0.0 1.8 6.5 310
16/09/2020 1:40 17.2 78 0.0 0 0.0 1.6 5.8 308
16/09/2020 1:50 16.8 80 0.0 0 0.0 1.8 6.4 311
16/09/2020 2:00 16.7 81 0.0 0 0.0 1.8 6.5 324
16/09/2020 2:10 16.8 80 0.0 0 0.0 1.7 6.1 325
16/09/2020 2:20 17.1 78 0.0 0 0.0 1.8 6.3 327
16/09/2020 2:30 17.1 78 0.0 0 0.0 1.7 6.2 318
16/09/2020 2:40 17.0 78 0.0 0 0.0 1.6 5.9 318
16/09/2020 2:50 16.7 80 0.0 0 0.0 1.6 5.6 311
16/09/2020 3:00 16.5 80 0.0 0 0.0 1.8 6.6 310
16/09/2020 3:10 16.3 82 0.0 0 0.0 2.3 8.4 318
16/09/2020 3:20 16.3 82 0.0 0 0.0 2.4 8.5 322
16/09/2020 3:30 16.3 82 0.0 0 0.0 2.5 8.9 316
16/09/2020 3:40 16.1 83 0.0 0 0.0 2.3 8.4 316
16/09/2020 3:50 15.8 84 0.0 0 0.0 2.3 8.2 322
16/09/2020 4:00 15.6 85 0.0 0 0.0 2.2 7.7 330
16/09/2020 4:10 15.6 85 0.0 0 0.0 2.3 8.3 317
16/09/2020 4:20 15.6 85 0.0 0 0.0 2.1 7.7 324
16/09/2020 4:30 15.9 84 0.0 0 0.0 2.3 8.3 327
16/09/2020 4:40 16.0 83 0.0 0 0.0 1.8 6.4 325
16/09/2020 4:50 15.9 83 0.0 0 0.0 2.1 7.4 321
16/09/2020 5:00 15.9 83 0.0 0 0.0 1.7 6.0 308
16/09/2020 5:10 15.5 85 0.0 0 0.0 1.9 6.8 312
16/09/2020 5:20 15.3 87 0.0 0 0.0 2.1 7.6 322
16/09/2020 5:30 15.1 88 0.0 0 0.0 2.6 9.3 319
16/09/2020 5:40 14.9 89 0.0 0 0.0 2.1 7.7 316
16/09/2020 5:50 14.7 91 0.0 0 0.0 1.7 6.3 311
16/09/2020 6:00 14.5 91 1.4 0 0.0 1.3 4.7 317
16/09/2020 6:10 14.3 91 19.5 0 0.0 1.0 3.7 318
16/09/2020 6:20 14.2 93 30.1 0 0.0 1.8 6.6 321
16/09/2020 6:30 14.5 93 41.5 0 0.0 2.1 7.7 321
16/09/2020 6:40 14.9 90 55.4 0 0.0 1.9 6.8 329
16/09/2020 6:50 15.3 87 65.2 0 0.0 2.1 7.4 331
16/09/2020 7:00 15.6 85 75.9 0 0.0 1.6 5.7 316
16/09/2020 7:10 16.0 83 157.9 570 0.0 1.5 5.3 315
16/09/2020 7:20 16.9 79 195.7 600 0.0 1.8 6.4 325
16/09/2020 7:30 17.2 76 201.8 600 0.0 2.2 8.1 317
16/09/2020 7:40 17.5 76 253.4 600 0.0 2.0 7.3 316
16/09/2020 7:50 18.3 73 293.2 600 0.0 1.7 6.0 317
16/09/2020 8:00 18.8 70 260.5 432 0.0 1.7 6.1 325
16/09/2020 8:10 19.4 68 193.2 208 0.0 1.3 4.6 314
16/09/2020 8:20 20.0 66 371.2 600 0.0 0.7 2.6 298
16/09/2020 8:30 20.9 63 389.0 600 0.0 0.5 1.6 212
16/09/2020 8:40 21.8 59 423.9 600 0.0 0.6 2.3 222
16/09/2020 8:50 22.3 57 456.2 600 0.0 0.7 2.4 220
16/09/2020 9:00 22.8 54 485.1 600 0.0 1.0 3.4 225
16/09/2020 9:10 23.4 53 511.1 600 0.0 1.2 4.2 227
16/09/2020 9:20 24.1 50 537.8 600 0.0 1.4 5.2 206
16/09/2020 9:30 24.7 48 566.5 600 0.0 1.8 6.5 204
16/09/2020 9:40 25.2 48 592.4 600 0.0 1.7 6.1 207
16/09/2020 9:50 25.7 47 615.1 600 0.0 1.6 5.7 190
16/09/2020 10:00 26.3 45 634.8 600 0.0 1.4 4.9 172
16/09/2020 10:10 26.5 45 652.9 600 0.0 1.7 6.1 198
16/09/2020 10:20 26.5 45 669.0 600 0.0 2.0 7.1 196
16/09/2020 10:30 26.6 44 682.3 600 0.0 1.4 5.0 193
16/09/2020 10:40 27.0 43 701.8 600 0.0 1.6 5.8 167
16/09/2020 10:50 27.1 43 719.6 600 0.0 1.4 4.9 169
16/09/2020 11:00 27.7 41 721.2 600 0.0 1.5 5.5 191
16/09/2020 11:10 27.7 41 746.9 600 0.0 2.1 7.7 201
16/09/2020 11:20 27.7 41 754.1 600 0.0 2.1 7.6 164
16/09/2020 11:30 28.4 39 763.3 600 0.0 1.9 6.9 180
16/09/2020 11:40 28.4 39 766.4 600 0.0 2.0 7.2 147
16/09/2020 11:50 28.6 38 759.7 600 0.0 1.5 5.4 203
16/09/2020 12:00 28.8 38 761.6 600 0.0 1.8 6.5 189
16/09/2020 12:10 29.2 37 771.2 600 0.0 1.5 5.5 191
16/09/2020 12:20 29.5 36 763.7 600 0.0 1.4 5.1 181
16/09/2020 12:30 30.0 33 746.1 600 0.0 1.6 5.9 193
16/09/2020 12:40 30.0 33 738.1 600 0.0 1.5 5.3 144
16/09/2020 12:50 30.3 33 726.9 600 0.0 2.0 7.1 206
16/09/2020 13:00 30.3 32 733.8 600 0.0 1.8 6.3 185
16/09/2020 13:10 30.3 31 715.2 600 0.0 1.5 5.3 226
16/09/2020 13:20 30.4 30 717.0 600 0.0 1.7 6.0 252
16/09/2020 13:30 31.2 29 709.9 600 0.0 1.4 5.1 205
16/09/2020 13:40 31.3 29 665.2 600 0.0 1.8 6.3 226
16/09/2020 13:50 31.8 27 681.7 600 0.0 0.9 3.3 1
16/09/2020 14:00 31.8 24 669.1 600 0.0 2.2 7.8 207
16/09/2020 14:10 31.6 23 635.4 600 0.0 1.9 6.9 207
16/09/2020 14:20 31.3 24 522.7 600 0.0 1.8 6.6 211
16/09/2020 14:30 31.1 26 512.5 600 0.0 1.9 7.0 83
16/09/2020 14:40 31.2 27 419.1 600 0.0 1.1 4.0 236
16/09/2020 14:50 31.2 26 346.6 324 0.0 1.0 3.6 188
16/09/2020 15:00 31.2 26 511.4 600 0.0 1.8 6.4 205
16/09/2020 15:10 31.6 25 360.7 402 0.0 1.5 5.3 175
16/09/2020 15:20 30.6 25 197.7 0 0.0 2.6 9.4 187
16/09/2020 15:30 30.3 24 228.6 0 0.0 1.1 3.9 135
16/09/2020 15:40 30.6 24 265.9 446 0.0 0.8 2.8 208
16/09/2020 15:50 31.0 24 280.4 600 0.0 0.8 2.8 141
16/09/2020 16:00 31.0 24 258.4 600 0.0 0.9 3.2 172
16/09/2020 16:10 31.0 24 256.3 600 0.0 1.1 3.9 164
16/09/2020 16:20 30.8 23 241.8 600 0.0 1.3 4.6 178
16/09/2020 16:30 30.9 24 268.1 600 0.0 1.2 4.1 195
16/09/2020 16:40 30.9 25 231.0 600 0.0 1.0 3.4 202
16/09/2020 16:50 30.7 25 180.1 600 0.0 1.1 4.0 204
16/09/2020 17:00 30.3 25 147.3 452 0.0 1.9 7.0 201
16/09/2020 17:10 29.8 26 75.0 0 0.0 1.0 3.7 200
16/09/2020 17:20 29.2 28 51.4 0 0.0 0.4 1.6 189
16/09/2020 17:30 28.4 29 45.9 0 0.0 1.0 3.7 70
16/09/2020 17:40 28.0 30 39.0 0 0.0 2.0 7.3 34
16/09/2020 17:50 27.9 37 29.1 0 0.0 1.3 4.7 46
16/09/2020 18:00 27.7 42 18.8 0 0.0 2.1 7.5 42
16/09/2020 18:10 27.5 43 3.4 0 0.0 2.3 8.2 40
16/09/2020 18:20 27.2 44 0.0 0 0.0 2.6 9.3 36
16/09/2020 18:30 26.9 45 0.0 0 0.0 2.6 9.4 42
16/09/2020 18:40 26.6 46 0.0 0 0.0 1.6 5.9 45
16/09/2020 18:50 26.3 46 0.0 0 0.0 2.2 7.8 36
16/09/2020 19:00 26.3 46 0.0 0 0.0 2.5 9.0 41
16/09/2020 19:10 26.1 46 0.0 0 0.0 2.2 7.8 48
16/09/2020 19:20 25.9 47 0.0 0 0.0 1.2 4.3 66
16/09/2020 19:30 25.3 48 0.0 0 0.0 0.9 3.2 61
16/09/2020 19:40 24.9 49 0.0 0 0.0 0.4 1.5 88
16/09/2020 19:50 24.7 49 0.0 0 0.0 1.1 4.1 57
16/09/2020 20:00 25.1 47 0.0 0 0.0 1.4 5.0 42
16/09/2020 20:10 25.3 47 0.0 0 0.0 1.7 6.3 43
16/09/2020 20:20 25.4 46 0.0 0 0.0 1.9 7.0 38
16/09/2020 20:30 25.4 46 0.0 0 0.0 1.9 7.0 38
16/09/2020 20:40 25.6 45 0.0 0 0.0 2.4 8.5 38
16/09/2020 20:50 25.7 45 0.0 0 0.0 1.9 6.8 47
16/09/2020 21:00 25.4 45 0.0 0 0.0 1.6 5.7 58
16/09/2020 21:10 25.3 45 0.0 0 0.0 2.1 7.5 45
16/09/2020 21:20 25.2 45 0.0 0 0.0 2.0 7.2 40
16/09/2020 21:30 25.2 45 0.0 0 0.0 1.7 6.0 48
16/09/2020 21:40 25.0 45 0.0 0 0.0 1.6 5.7 18
16/09/2020 21:50 24.0 48 0.0 0 0.0 1.4 5.1 335
16/09/2020 22:00 23.5 49 0.0 0 0.0 1.3 4.8 355
16/09/2020 22:10 23.6 49 0.0 0 0.0 1.5 5.3 333
16/09/2020 22:20 22.8 51 0.0 0 0.0 1.4 5.1 312
16/09/2020 22:30 22.5 51 0.0 0 0.0 1.4 5.1 313
16/09/2020 22:40 22.4 51 0.0 0 0.0 0.8 2.8 293
16/09/2020 22:50 22.0 52 0.0 0 0.0 1.0 3.6 343
16/09/2020 23:00 22.4 51 0.0 0 0.0 0.8 2.8 3
16/09/2020 23:10 22.2 51 0.0 0 0.0 1.2 4.2 324
16/09/2020 23:20 21.8 53 0.0 0 0.0 1.2 4.3 329
16/09/2020 23:30 22.3 51 0.0 0 0.0 0.6 2.3 307
16/09/2020 23:40 21.7 54 0.0 0 0.0 0.1 0.5 246
16/09/2020 23:50 21.4 56 0.0 0 0.0 0.3 1.0 287
Anterior Página 1 de 1 Siguiente

NOTA: Tipo de datos según el color:
   - Valores diarios o 10 minutos correctos
   - Valores diarios calculados a partir de un número de datos 10 minutos menor que 144 y mayor que 120, o de un número de datos semihorarios menor que 48 y mayor que 40 (caso de las estaciones de INTIA y del Ministerio)
   - Valores diez minutos estimados


Contacto        Enlaces        Aviso legal